sensor_id;sensor_type;location;lat;lon;timestamp;P1;durP1;ratioP1;P2;durP2;ratioP2
10114;SDS011;5097;43.260;27.812;2023-04-15T00:02:00;6.57;;;3.90;;
10114;SDS011;5097;43.260;27.812;2023-04-15T00:04:44;8.50;;;4.17;;
10114;SDS011;5097;43.260;27.812;2023-04-15T00:07:28;14.17;;;6.37;;
10114;SDS011;5097;43.260;27.812;2023-04-15T00:10:14;12.03;;;4.67;;
10114;SDS011;5097;43.260;27.812;2023-04-15T00:12:58;8.33;;;4.93;;
10114;SDS011;5097;43.260;27.812;2023-04-15T00:15:41;7.07;;;4.60;;
10114;SDS011;5097;43.260;27.812;2023-04-15T00:18:25;8.67;;;4.87;;
10114;SDS011;5097;43.260;27.812;2023-04-15T00:21:10;12.73;;;4.67;;
10114;SDS011;5097;43.260;27.812;2023-04-15T00:23:54;11.43;;;5.03;;
10114;SDS011;5097;43.260;27.812;2023-04-15T00:26:39;12.07;;;5.27;;
10114;SDS011;5097;43.260;27.812;2023-04-15T00:29:23;6.27;;;5.10;;
10114;SDS011;5097;43.260;27.812;2023-04-15T00:32:07;8.00;;;4.93;;
10114;SDS011;5097;43.260;27.812;2023-04-15T00:34:51;8.13;;;5.03;;
10114;SDS011;5097;43.260;27.812;2023-04-15T00:37:35;8.90;;;4.87;;
10114;SDS011;5097;43.260;27.812;2023-04-15T00:40:20;5.57;;;4.50;;
10114;SDS011;5097;43.260;27.812;2023-04-15T00:43:07;11.20;;;6.40;;
10114;SDS011;5097;43.260;27.812;2023-04-15T00:45:51;11.30;;;5.20;;
10114;SDS011;5097;43.260;27.812;2023-04-15T00:48:37;15.73;;;4.90;;
10114;SDS011;5097;43.260;27.812;2023-04-15T00:51:21;10.33;;;4.87;;
10114;SDS011;5097;43.260;27.812;2023-04-15T00:54:05;10.93;;;5.80;;
10114;SDS011;5097;43.260;27.812;2023-04-15T00:56:50;8.93;;;4.97;;
10114;SDS011;5097;43.260;27.812;2023-04-15T00:59:35;12.90;;;4.73;;
10114;SDS011;5097;43.260;27.812;2023-04-15T01:02:19;9.80;;;5.07;;
10114;SDS011;5097;43.260;27.812;2023-04-15T01:05:04;9.73;;;5.13;;
10114;SDS011;5097;43.260;27.812;2023-04-15T01:07:48;8.83;;;5.13;;
10114;SDS011;5097;43.260;27.812;2023-04-15T01:10:32;10.57;;;5.27;;
10114;SDS011;5097;43.260;27.812;2023-04-15T01:13:17;9.77;;;5.70;;
10114;SDS011;5097;43.260;27.812;2023-04-15T01:16:04;11.07;;;5.40;;
10114;SDS011;5097;43.260;27.812;2023-04-15T01:18:49;10.67;;;5.10;;
10114;SDS011;5097;43.260;27.812;2023-04-15T01:21:35;10.33;;;5.23;;
10114;SDS011;5097;43.260;27.812;2023-04-15T01:24:19;10.33;;;5.47;;
10114;SDS011;5097;43.260;27.812;2023-04-15T01:27:04;13.97;;;5.23;;
10114;SDS011;5097;43.260;27.812;2023-04-15T01:29:50;13.13;;;5.53;;
10114;SDS011;5097;43.260;27.812;2023-04-15T01:32:34;11.60;;;5.13;;
10114;SDS011;5097;43.260;27.812;2023-04-15T01:35:36;10.97;;;4.93;;
10114;SDS011;5097;43.260;27.812;2023-04-15T01:38:20;16.40;;;5.77;;
10114;SDS011;5097;43.260;27.812;2023-04-15T01:41:03;12.10;;;5.53;;
10114;SDS011;5097;43.260;27.812;2023-04-15T01:43:50;14.77;;;5.20;;
10114;SDS011;5097;43.260;27.812;2023-04-15T01:46:34;15.10;;;5.43;;
10114;SDS011;5097;43.260;27.812;2023-04-15T01:49:18;8.80;;;4.97;;
10114;SDS011;5097;43.260;27.812;2023-04-15T01:52:02;13.93;;;5.20;;
10114;SDS011;5097;43.260;27.812;2023-04-15T01:54:47;11.07;;;5.17;;
10114;SDS011;5097;43.260;27.812;2023-04-15T01:57:32;10.43;;;5.13;;
10114;SDS011;5097;43.260;27.812;2023-04-15T02:00:18;10.27;;;5.37;;
10114;SDS011;5097;43.260;27.812;2023-04-15T02:03:03;14.10;;;5.73;;
10114;SDS011;5097;43.260;27.812;2023-04-15T02:05:47;9.40;;;5.83;;
10114;SDS011;5097;43.260;27.812;2023-04-15T02:08:32;14.47;;;4.93;;
10114;SDS011;5097;43.260;27.812;2023-04-15T02:11:16;12.60;;;5.57;;
10114;SDS011;5097;43.260;27.812;2023-04-15T02:14:00;14.17;;;5.87;;
10114;SDS011;5097;43.260;27.812;2023-04-15T02:16:46;13.43;;;5.40;;
10114;SDS011;5097;43.260;27.812;2023-04-15T02:19:30;16.20;;;6.10;;
10114;SDS011;5097;43.260;27.812;2023-04-15T02:22:17;11.33;;;5.57;;
10114;SDS011;5097;43.260;27.812;2023-04-15T02:25:01;9.03;;;4.90;;
10114;SDS011;5097;43.260;27.812;2023-04-15T02:27:46;12.53;;;5.47;;
10114;SDS011;5097;43.260;27.812;2023-04-15T02:30:31;13.80;;;5.67;;
10114;SDS011;5097;43.260;27.812;2023-04-15T02:33:17;13.20;;;5.53;;
10114;SDS011;5097;43.260;27.812;2023-04-15T02:36:01;19.63;;;6.10;;
10114;SDS011;5097;43.260;27.812;2023-04-15T02:38:46;11.97;;;5.17;;
10114;SDS011;5097;43.260;27.812;2023-04-15T02:41:30;14.73;;;6.17;;
10114;SDS011;5097;43.260;27.812;2023-04-15T02:44:14;10.67;;;5.43;;
10114;SDS011;5097;43.260;27.812;2023-04-15T02:47:00;12.27;;;6.23;;
10114;SDS011;5097;43.260;27.812;2023-04-15T02:49:46;21.70;;;6.33;;
10114;SDS011;5097;43.260;27.812;2023-04-15T02:52:29;14.00;;;5.37;;
10114;SDS011;5097;43.260;27.812;2023-04-15T02:55:13;13.20;;;5.83;;
10114;SDS011;5097;43.260;27.812;2023-04-15T02:57:59;15.67;;;6.77;;
10114;SDS011;5097;43.260;27.812;2023-04-15T03:00:43;14.10;;;7.43;;
10114;SDS011;5097;43.260;27.812;2023-04-15T03:03:27;11.33;;;6.20;;
10114;SDS011;5097;43.260;27.812;2023-04-15T03:06:13;12.50;;;6.77;;
10114;SDS011;5097;43.260;27.812;2023-04-15T03:08:57;13.60;;;6.33;;
10114;SDS011;5097;43.260;27.812;2023-04-15T03:11:47;13.63;;;6.07;;
10114;SDS011;5097;43.260;27.812;2023-04-15T03:14:33;15.67;;;7.33;;
10114;SDS011;5097;43.260;27.812;2023-04-15T03:17:17;22.53;;;7.07;;
10114;SDS011;5097;43.260;27.812;2023-04-15T03:20:00;16.27;;;7.03;;
10114;SDS011;5097;43.260;27.812;2023-04-15T03:22:47;16.30;;;6.83;;
10114;SDS011;5097;43.260;27.812;2023-04-15T03:25:33;16.87;;;8.83;;
10114;SDS011;5097;43.260;27.812;2023-04-15T03:28:20;17.50;;;7.53;;
10114;SDS011;5097;43.260;27.812;2023-04-15T03:31:04;18.27;;;8.17;;
10114;SDS011;5097;43.260;27.812;2023-04-15T03:33:49;18.07;;;8.87;;
10114;SDS011;5097;43.260;27.812;2023-04-15T03:36:33;20.13;;;9.43;;
10114;SDS011;5097;43.260;27.812;2023-04-15T03:39:18;21.33;;;7.13;;
10114;SDS011;5097;43.260;27.812;2023-04-15T03:42:02;11.50;;;7.03;;
10114;SDS011;5097;43.260;27.812;2023-04-15T03:44:45;18.07;;;8.07;;
10114;SDS011;5097;43.260;27.812;2023-04-15T03:47:29;16.07;;;6.97;;
10114;SDS011;5097;43.260;27.812;2023-04-15T03:50:13;19.73;;;6.13;;
10114;SDS011;5097;43.260;27.812;2023-04-15T03:52:57;13.63;;;6.33;;
10114;SDS011;5097;43.260;27.812;2023-04-15T03:55:42;13.47;;;6.73;;
10114;SDS011;5097;43.260;27.812;2023-04-15T03:58:26;14.90;;;8.37;;
10114;SDS011;5097;43.260;27.812;2023-04-15T04:01:10;15.30;;;9.03;;
10114;SDS011;5097;43.260;27.812;2023-04-15T04:03:53;14.00;;;8.30;;
10114;SDS011;5097;43.260;27.812;2023-04-15T04:06:38;15.57;;;6.77;;
10114;SDS011;5097;43.260;27.812;2023-04-15T04:09:21;18.33;;;7.43;;
10114;SDS011;5097;43.260;27.812;2023-04-15T04:12:07;16.53;;;7.17;;
10114;SDS011;5097;43.260;27.812;2023-04-15T04:14:51;16.00;;;6.77;;
10114;SDS011;5097;43.260;27.812;2023-04-15T04:17:34;12.87;;;5.93;;
10114;SDS011;5097;43.260;27.812;2023-04-15T04:20:18;13.80;;;6.47;;
10114;SDS011;5097;43.260;27.812;2023-04-15T04:23:02;11.67;;;7.00;;
10114;SDS011;5097;43.260;27.812;2023-04-15T04:25:46;16.20;;;6.73;;
10114;SDS011;5097;43.260;27.812;2023-04-15T04:28:31;12.23;;;6.43;;
10114;SDS011;5097;43.260;27.812;2023-04-15T04:31:17;17.55;;;6.70;;
10114;SDS011;5097;43.260;27.812;2023-04-15T04:34:01;17.73;;;6.87;;
10114;SDS011;5097;43.260;27.812;2023-04-15T04:36:45;14.77;;;6.23;;
10114;SDS011;5097;43.260;27.812;2023-04-15T04:39:29;18.10;;;6.60;;
10114;SDS011;5097;43.260;27.812;2023-04-15T04:42:12;12.17;;;6.20;;
10114;SDS011;5097;43.260;27.812;2023-04-15T04:44:58;16.33;;;7.47;;
10114;SDS011;5097;43.260;27.812;2023-04-15T04:47:41;11.87;;;6.30;;
10114;SDS011;5097;43.260;27.812;2023-04-15T04:50:25;17.20;;;6.57;;
10114;SDS011;5097;43.260;27.812;2023-04-15T04:53:09;12.67;;;6.03;;
10114;SDS011;5097;43.260;27.812;2023-04-15T04:55:53;14.27;;;6.10;;
10114;SDS011;5097;43.260;27.812;2023-04-15T04:58:36;13.33;;;6.43;;
10114;SDS011;5097;43.260;27.812;2023-04-15T05:01:22;11.53;;;5.60;;
10114;SDS011;5097;43.260;27.812;2023-04-15T05:04:07;13.30;;;6.67;;
10114;SDS011;5097;43.260;27.812;2023-04-15T05:06:51;14.77;;;6.80;;
10114;SDS011;5097;43.260;27.812;2023-04-15T05:09:35;14.33;;;5.90;;
10114;SDS011;5097;43.260;27.812;2023-04-15T05:12:19;12.53;;;5.70;;
10114;SDS011;5097;43.260;27.812;2023-04-15T05:15:03;16.73;;;6.03;;
10114;SDS011;5097;43.260;27.812;2023-04-15T05:17:48;13.55;;;5.75;;
10114;SDS011;5097;43.260;27.812;2023-04-15T05:20:32;13.32;;;5.60;;
10114;SDS011;5097;43.260;27.812;2023-04-15T05:23:16;10.30;;;5.07;;
10114;SDS011;5097;43.260;27.812;2023-04-15T05:26:00;13.75;;;6.20;;
10114;SDS011;5097;43.260;27.812;2023-04-15T05:28:44;12.45;;;5.68;;
10114;SDS011;5097;43.260;27.812;2023-04-15T05:31:28;13.27;;;6.27;;
10114;SDS011;5097;43.260;27.812;2023-04-15T05:34:14;12.47;;;6.87;;
10114;SDS011;5097;43.260;27.812;2023-04-15T05:36:58;15.73;;;6.63;;
10114;SDS011;5097;43.260;27.812;2023-04-15T05:39:42;10.23;;;5.33;;
10114;SDS011;5097;43.260;27.812;2023-04-15T05:42:26;18.90;;;6.63;;
10114;SDS011;5097;43.260;27.812;2023-04-15T05:45:10;15.13;;;6.37;;
10114;SDS011;5097;43.260;27.812;2023-04-15T05:47:54;13.43;;;7.13;;
10114;SDS011;5097;43.260;27.812;2023-04-15T05:50:41;14.10;;;6.20;;
10114;SDS011;5097;43.260;27.812;2023-04-15T05:53:24;14.03;;;6.43;;
10114;SDS011;5097;43.260;27.812;2023-04-15T05:56:08;17.30;;;8.10;;
10114;SDS011;5097;43.260;27.812;2023-04-15T05:58:52;17.10;;;9.43;;
10114;SDS011;5097;43.260;27.812;2023-04-15T06:01:36;17.33;;;8.73;;
10114;SDS011;5097;43.260;27.812;2023-04-15T06:04:20;20.87;;;10.00;;
10114;SDS011;5097;43.260;27.812;2023-04-15T06:07:05;16.03;;;9.30;;
10114;SDS011;5097;43.260;27.812;2023-04-15T06:09:50;18.17;;;9.87;;
10114;SDS011;5097;43.260;27.812;2023-04-15T06:12:34;16.97;;;9.90;;
10114;SDS011;5097;43.260;27.812;2023-04-15T06:15:18;18.23;;;11.63;;
10114;SDS011;5097;43.260;27.812;2023-04-15T06:18:02;17.90;;;11.33;;
10114;SDS011;5097;43.260;27.812;2023-04-15T06:20:46;26.10;;;13.63;;
10114;SDS011;5097;43.260;27.812;2023-04-15T06:23:31;24.27;;;12.37;;
10114;SDS011;5097;43.260;27.812;2023-04-15T06:26:17;24.33;;;14.60;;
10114;SDS011;5097;43.260;27.812;2023-04-15T06:29:01;24.47;;;14.00;;
10114;SDS011;5097;43.260;27.812;2023-04-15T06:31:46;22.50;;;13.93;;
10114;SDS011;5097;43.260;27.812;2023-04-15T06:34:30;19.17;;;13.63;;
10114;SDS011;5097;43.260;27.812;2023-04-15T06:37:14;21.60;;;14.30;;
10114;SDS011;5097;43.260;27.812;2023-04-15T06:39:59;19.57;;;15.50;;
10114;SDS011;5097;43.260;27.812;2023-04-15T06:42:43;24.47;;;16.13;;
10114;SDS011;5097;43.260;27.812;2023-04-15T06:45:29;27.43;;;15.37;;
10114;SDS011;5097;43.260;27.812;2023-04-15T06:48:13;29.27;;;15.33;;
10114;SDS011;5097;43.260;27.812;2023-04-15T06:50:58;17.80;;;13.33;;
10114;SDS011;5097;43.260;27.812;2023-04-15T06:53:42;15.90;;;12.23;;
10114;SDS011;5097;43.260;27.812;2023-04-15T06:56:28;24.02;;;13.48;;
10114;SDS011;5097;43.260;27.812;2023-04-15T06:59:12;17.83;;;13.15;;
10114;SDS011;5097;43.260;27.812;2023-04-15T07:01:56;18.30;;;13.80;;
10114;SDS011;5097;43.260;27.812;2023-04-15T07:04:40;22.08;;;14.10;;
10114;SDS011;5097;43.260;27.812;2023-04-15T07:07:24;18.70;;;11.60;;
10114;SDS011;5097;43.260;27.812;2023-04-15T07:10:08;16.15;;;10.63;;
10114;SDS011;5097;43.260;27.812;2023-04-15T07:12:54;11.52;;;9.50;;
10114;SDS011;5097;43.260;27.812;2023-04-15T07:15:38;13.45;;;8.88;;
10114;SDS011;5097;43.260;27.812;2023-04-15T07:18:22;17.48;;;10.05;;
10114;SDS011;5097;43.260;27.812;2023-04-15T07:21:06;16.23;;;10.05;;
10114;SDS011;5097;43.260;27.812;2023-04-15T07:23:50;14.88;;;10.10;;
10114;SDS011;5097;43.260;27.812;2023-04-15T07:26:34;11.88;;;8.80;;
10114;SDS011;5097;43.260;27.812;2023-04-15T07:29:20;12.73;;;8.82;;
10114;SDS011;5097;43.260;27.812;2023-04-15T07:32:04;15.43;;;8.70;;
10114;SDS011;5097;43.260;27.812;2023-04-15T07:34:48;13.13;;;7.97;;
10114;SDS011;5097;43.260;27.812;2023-04-15T07:37:32;10.65;;;8.90;;
10114;SDS011;5097;43.260;27.812;2023-04-15T07:40:16;11.27;;;8.02;;
10114;SDS011;5097;43.260;27.812;2023-04-15T07:43:00;10.63;;;9.02;;
10114;SDS011;5097;43.260;27.812;2023-04-15T07:45:46;13.98;;;8.40;;
10114;SDS011;5097;43.260;27.812;2023-04-15T07:48:29;10.75;;;6.88;;
10114;SDS011;5097;43.260;27.812;2023-04-15T07:51:15;8.95;;;6.03;;
10114;SDS011;5097;43.260;27.812;2023-04-15T07:54:00;10.90;;;5.32;;
10114;SDS011;5097;43.260;27.812;2023-04-15T07:56:45;9.50;;;7.95;;
10114;SDS011;5097;43.260;27.812;2023-04-15T07:59:28;10.27;;;6.47;;
10114;SDS011;5097;43.260;27.812;2023-04-15T08:02:15;11.10;;;7.32;;
10114;SDS011;5097;43.260;27.812;2023-04-15T08:04:59;13.05;;;5.78;;
10114;SDS011;5097;43.260;27.812;2023-04-15T08:07:45;6.22;;;4.93;;
10114;SDS011;5097;43.260;27.812;2023-04-15T08:10:29;8.07;;;4.53;;
10114;SDS011;5097;43.260;27.812;2023-04-15T08:13:12;6.50;;;4.60;;
10114;SDS011;5097;43.260;27.812;2023-04-15T08:16:12;9.45;;;4.40;;
10114;SDS011;5097;43.260;27.812;2023-04-15T08:19:01;5.40;;;3.83;;
10114;SDS011;5097;43.260;27.812;2023-04-15T08:21:45;7.43;;;4.28;;
10114;SDS011;5097;43.260;27.812;2023-04-15T08:24:30;5.18;;;3.65;;
10114;SDS011;5097;43.260;27.812;2023-04-15T08:27:14;3.97;;;3.60;;
10114;SDS011;5097;43.260;27.812;2023-04-15T08:29:57;7.78;;;3.83;;
10114;SDS011;5097;43.260;27.812;2023-04-15T08:32:45;6.40;;;3.63;;
10114;SDS011;5097;43.260;27.812;2023-04-15T08:35:30;4.28;;;3.17;;
10114;SDS011;5097;43.260;27.812;2023-04-15T08:38:14;4.45;;;2.95;;
10114;SDS011;5097;43.260;27.812;2023-04-15T08:40:59;4.20;;;3.17;;
10114;SDS011;5097;43.260;27.812;2023-04-15T08:43:48;5.78;;;3.60;;
10114;SDS011;5097;43.260;27.812;2023-04-15T08:46:35;3.35;;;3.00;;
10114;SDS011;5097;43.260;27.812;2023-04-15T08:49:20;6.13;;;3.40;;
10114;SDS011;5097;43.260;27.812;2023-04-15T08:52:10;4.47;;;2.78;;
10114;SDS011;5097;43.260;27.812;2023-04-15T08:54:55;5.82;;;2.80;;
10114;SDS011;5097;43.260;27.812;2023-04-15T08:57:40;5.50;;;3.97;;
10114;SDS011;5097;43.260;27.812;2023-04-15T09:00:24;7.40;;;3.17;;
10114;SDS011;5097;43.260;27.812;2023-04-15T09:03:09;5.43;;;2.95;;
10114;SDS011;5097;43.260;27.812;2023-04-15T09:05:53;4.88;;;2.35;;
10114;SDS011;5097;43.260;27.812;2023-04-15T09:08:39;4.60;;;2.88;;
10114;SDS011;5097;43.260;27.812;2023-04-15T09:11:23;4.47;;;2.38;;
10114;SDS011;5097;43.260;27.812;2023-04-15T09:14:07;5.60;;;2.40;;
10114;SDS011;5097;43.260;27.812;2023-04-15T09:16:58;3.17;;;2.33;;
10114;SDS011;5097;43.260;27.812;2023-04-15T09:19:43;6.30;;;2.92;;
10114;SDS011;5097;43.260;27.812;2023-04-15T09:22:30;5.13;;;3.00;;
10114;SDS011;5097;43.260;27.812;2023-04-15T09:25:26;4.63;;;2.38;;
10114;SDS011;5097;43.260;27.812;2023-04-15T09:28:10;4.75;;;2.53;;
10114;SDS011;5097;43.260;27.812;2023-04-15T09:30:54;4.13;;;3.00;;
10114;SDS011;5097;43.260;27.812;2023-04-15T09:33:53;3.95;;;2.50;;
10114;SDS011;5097;43.260;27.812;2023-04-15T09:36:50;6.10;;;2.53;;
10114;SDS011;5097;43.260;27.812;2023-04-15T09:39:45;3.50;;;2.70;;
10114;SDS011;5097;43.260;27.812;2023-04-15T09:42:35;7.50;;;3.38;;
10114;SDS011;5097;43.260;27.812;2023-04-15T09:45:20;4.93;;;2.85;;
10114;SDS011;5097;43.260;27.812;2023-04-15T09:48:15;4.22;;;2.42;;
10114;SDS011;5097;43.260;27.812;2023-04-15T09:51:02;9.15;;;2.78;;
10114;SDS011;5097;43.260;27.812;2023-04-15T09:53:46;3.88;;;3.08;;
10114;SDS011;5097;43.260;27.812;2023-04-15T09:56:38;2.92;;;2.30;;
10114;SDS011;5097;43.260;27.812;2023-04-15T09:59:25;2.70;;;2.25;;
10114;SDS011;5097;43.260;27.812;2023-04-15T10:02:08;4.55;;;2.10;;
10114;SDS011;5097;43.260;27.812;2023-04-15T10:04:55;6.85;;;2.90;;
10114;SDS011;5097;43.260;27.812;2023-04-15T10:07:39;4.65;;;2.50;;
10114;SDS011;5097;43.260;27.812;2023-04-15T10:10:25;5.95;;;2.47;;
10114;SDS011;5097;43.260;27.812;2023-04-15T10:13:09;7.05;;;2.08;;
10114;SDS011;5097;43.260;27.812;2023-04-15T10:15:56;3.58;;;2.33;;
10114;SDS011;5097;43.260;27.812;2023-04-15T10:18:42;4.97;;;2.20;;
10114;SDS011;5097;43.260;27.812;2023-04-15T10:21:27;4.80;;;2.53;;
10114;SDS011;5097;43.260;27.812;2023-04-15T10:24:13;5.18;;;2.58;;
10114;SDS011;5097;43.260;27.812;2023-04-15T10:26:58;5.88;;;2.45;;
10114;SDS011;5097;43.260;27.812;2023-04-15T10:29:42;3.95;;;2.17;;
10114;SDS011;5097;43.260;27.812;2023-04-15T10:32:28;4.10;;;2.33;;
10114;SDS011;5097;43.260;27.812;2023-04-15T10:35:12;3.03;;;2.80;;
10114;SDS011;5097;43.260;27.812;2023-04-15T10:37:57;3.92;;;3.30;;
10114;SDS011;5097;43.260;27.812;2023-04-15T10:40:41;4.47;;;2.45;;
10114;SDS011;5097;43.260;27.812;2023-04-15T10:43:27;8.15;;;2.97;;
10114;SDS011;5097;43.260;27.812;2023-04-15T10:46:10;4.65;;;3.10;;
10114;SDS011;5097;43.260;27.812;2023-04-15T10:48:56;2.55;;;2.33;;
10114;SDS011;5097;43.260;27.812;2023-04-15T10:51:40;6.70;;;2.83;;
10114;SDS011;5097;43.260;27.812;2023-04-15T10:54:30;4.10;;;2.30;;
10114;SDS011;5097;43.260;27.812;2023-04-15T10:57:20;5.70;;;2.50;;
10114;SDS011;5097;43.260;27.812;2023-04-15T11:00:09;4.40;;;2.33;;
10114;SDS011;5097;43.260;27.812;2023-04-15T11:02:55;4.80;;;1.88;;
10114;SDS011;5097;43.260;27.812;2023-04-15T11:05:51;3.00;;;2.40;;
10114;SDS011;5097;43.260;27.812;2023-04-15T11:14:50;4.40;;;2.38;;
10114;SDS011;5097;43.260;27.812;2023-04-15T11:17:34;4.47;;;2.30;;
10114;SDS011;5097;43.260;27.812;2023-04-15T11:20:18;5.60;;;2.80;;
10114;SDS011;5097;43.260;27.812;2023-04-15T11:23:04;2.70;;;2.13;;
10114;SDS011;5097;43.260;27.812;2023-04-15T11:25:56;6.20;;;2.45;;
10114;SDS011;5097;43.260;27.812;2023-04-15T11:28:42;7.38;;;2.10;;
10114;SDS011;5097;43.260;27.812;2023-04-15T11:31:27;2.65;;;2.00;;
10114;SDS011;5097;43.260;27.812;2023-04-15T11:34:11;4.32;;;2.30;;
10114;SDS011;5097;43.260;27.812;2023-04-15T11:36:55;7.70;;;2.13;;
10114;SDS011;5097;43.260;27.812;2023-04-15T11:39:40;4.53;;;2.20;;
10114;SDS011;5097;43.260;27.812;2023-04-15T11:42:24;2.63;;;1.95;;
10114;SDS011;5097;43.260;27.812;2023-04-15T11:45:24;2.83;;;2.13;;
10114;SDS011;5097;43.260;27.812;2023-04-15T11:48:08;3.42;;;2.13;;
10114;SDS011;5097;43.260;27.812;2023-04-15T11:50:54;2.92;;;1.80;;
10114;SDS011;5097;43.260;27.812;2023-04-15T11:53:41;4.50;;;2.05;;
10114;SDS011;5097;43.260;27.812;2023-04-15T11:56:33;2.83;;;1.98;;
10114;SDS011;5097;43.260;27.812;2023-04-15T11:59:17;4.80;;;2.70;;
10114;SDS011;5097;43.260;27.812;2023-04-15T12:02:10;5.05;;;3.55;;
10114;SDS011;5097;43.260;27.812;2023-04-15T12:05:01;2.78;;;1.92;;
10114;SDS011;5097;43.260;27.812;2023-04-15T12:07:58;6.55;;;2.35;;
10114;SDS011;5097;43.260;27.812;2023-04-15T12:10:43;2.85;;;2.42;;
10114;SDS011;5097;43.260;27.812;2023-04-15T12:13:28;6.90;;;2.00;;
10114;SDS011;5097;43.260;27.812;2023-04-15T12:16:12;4.15;;;1.92;;
10114;SDS011;5097;43.260;27.812;2023-04-15T12:18:59;3.50;;;1.95;;
10114;SDS011;5097;43.260;27.812;2023-04-15T12:21:46;3.58;;;2.08;;
10114;SDS011;5097;43.260;27.812;2023-04-15T12:24:31;5.13;;;2.40;;
10114;SDS011;5097;43.260;27.812;2023-04-15T12:27:15;3.38;;;2.13;;
10114;SDS011;5097;43.260;27.812;2023-04-15T12:30:03;5.60;;;2.03;;
10114;SDS011;5097;43.260;27.812;2023-04-15T12:32:49;2.97;;;1.55;;
10114;SDS011;5097;43.260;27.812;2023-04-15T12:35:34;2.40;;;2.20;;
10114;SDS011;5097;43.260;27.812;2023-04-15T12:38:18;4.20;;;1.92;;
10114;SDS011;5097;43.260;27.812;2023-04-15T12:41:02;7.30;;;2.63;;
10114;SDS011;5097;43.260;27.812;2023-04-15T12:43:46;2.90;;;1.65;;
10114;SDS011;5097;43.260;27.812;2023-04-15T12:46:31;3.92;;;2.05;;
10114;SDS011;5097;43.260;27.812;2023-04-15T12:49:16;5.63;;;2.10;;
10114;SDS011;5097;43.260;27.812;2023-04-15T12:52:02;4.50;;;1.83;;
10114;SDS011;5097;43.260;27.812;2023-04-15T12:54:46;2.50;;;1.50;;
10114;SDS011;5097;43.260;27.812;2023-04-15T12:57:30;2.05;;;1.67;;
10114;SDS011;5097;43.260;27.812;2023-04-15T13:00:14;3.88;;;1.83;;
10114;SDS011;5097;43.260;27.812;2023-04-15T13:03:00;5.20;;;1.80;;
10114;SDS011;5097;43.260;27.812;2023-04-15T13:05:47;4.57;;;2.10;;
10114;SDS011;5097;43.260;27.812;2023-04-15T13:08:31;5.50;;;2.42;;
10114;SDS011;5097;43.260;27.812;2023-04-15T13:11:17;4.80;;;2.45;;
10114;SDS011;5097;43.260;27.812;2023-04-15T13:14:02;3.30;;;2.00;;
10114;SDS011;5097;43.260;27.812;2023-04-15T13:16:48;4.85;;;2.47;;
10114;SDS011;5097;43.260;27.812;2023-04-15T13:19:33;6.35;;;2.00;;
10114;SDS011;5097;43.260;27.812;2023-04-15T13:22:18;4.80;;;2.17;;
10114;SDS011;5097;43.260;27.812;2023-04-15T13:25:02;3.72;;;2.42;;
10114;SDS011;5097;43.260;27.812;2023-04-15T13:27:46;3.03;;;1.98;;
10114;SDS011;5097;43.260;27.812;2023-04-15T13:30:30;4.93;;;1.80;;
10114;SDS011;5097;43.260;27.812;2023-04-15T13:33:15;4.35;;;1.95;;
10114;SDS011;5097;43.260;27.812;2023-04-15T13:36:00;4.93;;;1.80;;
10114;SDS011;5097;43.260;27.812;2023-04-15T13:38:44;2.90;;;2.22;;
10114;SDS011;5097;43.260;27.812;2023-04-15T13:41:32;2.97;;;2.17;;
10114;SDS011;5097;43.260;27.812;2023-04-15T13:44:15;7.63;;;2.20;;
10114;SDS011;5097;43.260;27.812;2023-04-15T13:47:03;5.28;;;2.30;;
10114;SDS011;5097;43.260;27.812;2023-04-15T13:49:47;4.10;;;2.30;;
10114;SDS011;5097;43.260;27.812;2023-04-15T13:52:32;5.47;;;1.98;;
10114;SDS011;5097;43.260;27.812;2023-04-15T13:55:16;4.82;;;3.13;;
10114;SDS011;5097;43.260;27.812;2023-04-15T13:58:05;5.68;;;2.88;;
10114;SDS011;5097;43.260;27.812;2023-04-15T14:00:49;4.75;;;2.20;;
10114;SDS011;5097;43.260;27.812;2023-04-15T14:03:33;4.65;;;2.28;;
10114;SDS011;5097;43.260;27.812;2023-04-15T14:06:18;3.42;;;2.10;;
10114;SDS011;5097;43.260;27.812;2023-04-15T14:09:03;3.70;;;2.15;;
10114;SDS011;5097;43.260;27.812;2023-04-15T14:11:48;4.93;;;2.17;;
10114;SDS011;5097;43.260;27.812;2023-04-15T14:14:32;8.05;;;2.90;;
10114;SDS011;5097;43.260;27.812;2023-04-15T14:17:16;3.90;;;2.25;;
10114;SDS011;5097;43.260;27.812;2023-04-15T14:20:00;4.47;;;2.38;;
10114;SDS011;5097;43.260;27.812;2023-04-15T14:22:44;4.97;;;1.88;;
10114;SDS011;5097;43.260;27.812;2023-04-15T14:25:29;6.20;;;3.40;;
10114;SDS011;5097;43.260;27.812;2023-04-15T14:28:15;5.80;;;2.72;;
10114;SDS011;5097;43.260;27.812;2023-04-15T14:30:59;6.07;;;2.70;;
10114;SDS011;5097;43.260;27.812;2023-04-15T14:33:43;5.45;;;2.97;;
10114;SDS011;5097;43.260;27.812;2023-04-15T14:36:27;6.50;;;2.65;;
10114;SDS011;5097;43.260;27.812;2023-04-15T14:39:11;6.60;;;2.20;;
10114;SDS011;5097;43.260;27.812;2023-04-15T14:41:57;8.02;;;2.30;;
10114;SDS011;5097;43.260;27.812;2023-04-15T14:44:41;4.80;;;3.50;;
10114;SDS011;5097;43.260;27.812;2023-04-15T14:47:26;3.85;;;2.67;;
10114;SDS011;5097;43.260;27.812;2023-04-15T14:50:10;3.72;;;2.00;;
10114;SDS011;5097;43.260;27.812;2023-04-15T14:52:54;7.45;;;2.90;;
10114;SDS011;5097;43.260;27.812;2023-04-15T14:55:37;4.78;;;2.88;;
10114;SDS011;5097;43.260;27.812;2023-04-15T14:58:23;4.65;;;2.38;;
10114;SDS011;5097;43.260;27.812;2023-04-15T15:01:07;4.35;;;2.78;;
10114;SDS011;5097;43.260;27.812;2023-04-15T15:03:52;6.03;;;2.70;;
10114;SDS011;5097;43.260;27.812;2023-04-15T15:06:36;7.05;;;2.42;;
10114;SDS011;5097;43.260;27.812;2023-04-15T15:09:20;6.07;;;2.63;;
10114;SDS011;5097;43.260;27.812;2023-04-15T15:12:04;7.97;;;3.67;;
10114;SDS011;5097;43.260;27.812;2023-04-15T15:14:50;7.80;;;3.60;;
10114;SDS011;5097;43.260;27.812;2023-04-15T15:17:34;5.72;;;3.38;;
10114;SDS011;5097;43.260;27.812;2023-04-15T15:20:18;7.00;;;3.00;;
10114;SDS011;5097;43.260;27.812;2023-04-15T15:23:02;6.03;;;3.60;;
10114;SDS011;5097;43.260;27.812;2023-04-15T15:25:45;7.30;;;3.30;;
10114;SDS011;5097;43.260;27.812;2023-04-15T15:28:29;11.32;;;4.32;;
10114;SDS011;5097;43.260;27.812;2023-04-15T15:31:15;6.18;;;3.72;;
10114;SDS011;5097;43.260;27.812;2023-04-15T15:33:59;8.18;;;4.63;;
10114;SDS011;5097;43.260;27.812;2023-04-15T15:36:43;9.15;;;4.32;;
10114;SDS011;5097;43.260;27.812;2023-04-15T15:39:27;7.82;;;5.38;;
10114;SDS011;5097;43.260;27.812;2023-04-15T15:42:11;7.43;;;4.35;;
10114;SDS011;5097;43.260;27.812;2023-04-15T15:44:55;13.80;;;7.88;;
10114;SDS011;5097;43.260;27.812;2023-04-15T15:47:41;21.13;;;8.50;;
10114;SDS011;5097;43.260;27.812;2023-04-15T15:50:25;9.57;;;5.97;;
10114;SDS011;5097;43.260;27.812;2023-04-15T15:53:09;9.43;;;4.90;;
10114;SDS011;5097;43.260;27.812;2023-04-15T15:55:53;9.50;;;4.60;;
10114;SDS011;5097;43.260;27.812;2023-04-15T15:58:37;9.43;;;5.20;;
10114;SDS011;5097;43.260;27.812;2023-04-15T16:01:21;8.82;;;4.93;;
10114;SDS011;5097;43.260;27.812;2023-04-15T16:04:06;14.25;;;5.60;;
10114;SDS011;5097;43.260;27.812;2023-04-15T16:06:51;8.27;;;4.80;;
10114;SDS011;5097;43.260;27.812;2023-04-15T16:09:35;7.65;;;4.68;;
10114;SDS011;5097;43.260;27.812;2023-04-15T16:12:21;8.05;;;4.00;;
10114;SDS011;5097;43.260;27.812;2023-04-15T16:15:05;10.30;;;4.47;;
10114;SDS011;5097;43.260;27.812;2023-04-15T16:17:50;8.30;;;3.90;;
10114;SDS011;5097;43.260;27.812;2023-04-15T16:20:36;8.75;;;4.50;;
10114;SDS011;5097;43.260;27.812;2023-04-15T16:23:20;10.73;;;5.85;;
10114;SDS011;5097;43.260;27.812;2023-04-15T16:26:05;10.07;;;4.85;;
10114;SDS011;5097;43.260;27.812;2023-04-15T16:28:49;11.20;;;4.55;;
10114;SDS011;5097;43.260;27.812;2023-04-15T16:31:32;8.27;;;5.00;;
10114;SDS011;5097;43.260;27.812;2023-04-15T16:34:18;8.02;;;4.30;;